Time;durP1;ratioP1;P1;durP2;ratioP2;P2;SDS_P1;SDS_P2;PMS_P1;PMS_P2;Temp;Humidity;BMP_temperature;BMP_pressure;BME280_temperature;BME280_humidity;BME280_pressure;Samples;Min_cycle;Max_cycle;Signal;HPM_P1;HPM_P2
2023/05/20 00:00:07;;;;;;;;;32.75;27.25;24.90;48.00;;;;;;111789;1237;54162;-68
2023/05/20 00:02:54;;;;;;;;;28.00;25.00;24.90;47.80;;;;;;111756;1240;51581;-69
2023/05/20 00:05:21;;;;;;;;;30.25;25.75;24.90;47.90;;;;;;112008;1237;50065;-66
2023/05/20 00:07:48;;;;;;;;;33.00;28.00;24.90;47.80;;;;;;111745;1237;45660;-68
2023/05/20 00:10:15;;;;;;;;;31.33;28.33;24.90;47.80;;;;;;111779;1238;55068;-67
2023/05/20 00:12:42;;;;;;;;;28.50;26.50;24.90;47.80;;;;;;111800;1240;54068;-68
2023/05/20 00:15:11;;;;;;;;;31.00;26.50;24.90;47.80;;;;;;111972;1239;49631;-66
2023/05/20 00:17:37;;;;;;;;;28.25;27.25;24.90;47.80;;;;;;111725;1240;50192;-67
2023/05/20 00:20:05;;;;;;;;;24.75;22.50;24.90;47.80;;;;;;111690;1240;46478;-67
2023/05/20 00:22:32;;;;;;;;;24.33;23.00;24.90;47.80;;;;;;111765;1241;55118;-67
2023/05/20 00:24:59;;;;;;;;;29.75;26.25;24.80;47.70;;;;;;112038;1240;54595;-68
2023/05/20 00:27:26;;;;;;;;;27.00;24.33;24.90;47.90;;;;;;111768;1240;49246;-67
2023/05/20 00:29:53;;;;;;;;;27.50;26.50;24.90;48.10;;;;;;111746;1240;48994;-66
2023/05/20 00:32:20;;;;;;;;;28.25;25.25;24.90;48.10;;;;;;111743;1235;46008;-68
2023/05/20 00:34:57;;;;;;;;;31.50;28.00;24.80;47.80;;;;;;112072;1235;55752;-69
2023/05/20 00:37:25;;;;;;;;;28.00;26.00;24.80;47.80;;;;;;111708;1240;53272;-67
2023/05/20 00:39:52;;;;;;;;;26.75;24.25;24.80;48.00;;;;;;111709;1238;50302;-67
2023/05/20 00:42:23;;;;;;;;;26.33;24.00;24.80;47.80;;;;;;111642;1238;49551;-67
2023/05/20 00:44:50;;;;;;;;;30.25;27.25;24.80;47.80;;;;;;112040;1240;45538;-67
2023/05/20 00:47:20;;;;;;;;;29.00;25.00;24.80;47.80;;;;;;111759;1235;55380;-66
2023/05/20 00:49:49;;;;;;;;;24.33;23.00;24.80;48.00;;;;;;111749;1240;54043;-67
2023/05/20 00:52:17;;;;;;;;;28.50;25.75;24.80;47.70;;;;;;111739;1235;49101;-67
2023/05/20 00:54:44;;;;;;;;;24.75;23.50;24.80;48.30;;;;;;112067;1238;49038;-67
2023/05/20 00:57:12;;;;;;;;;30.25;25.00;24.80;47.80;;;;;;111633;1238;45586;-66
2023/05/20 00:59:39;;;;;;;;;27.00;23.67;24.80;47.80;;;;;;111765;1240;54982;-66
2023/05/20 01:02:06;;;;;;;;;25.75;24.00;24.80;47.80;;;;;;111680;1237;53668;-66
2023/05/20 01:04:33;;;;;;;;;26.67;24.00;24.80;47.80;;;;;;111930;1237;48986;-67
2023/05/20 01:07:03;;;;;;;;;28.00;25.50;24.70;47.70;;;;;;111731;1235;49231;-67
2023/05/20 01:09:31;;;;;;;;;24.75;22.75;24.80;48.00;;;;;;111602;1236;45587;-67
2023/05/20 01:12:03;;;;;;;;;28.00;27.00;24.80;47.80;;;;;;111730;1241;55540;-67
2023/05/20 01:14:36;;;;;;;;;31.00;25.50;24.70;47.90;;;;;;111921;1242;53402;-67
2023/05/20 01:17:08;;;;;;;;;26.75;25.00;24.70;47.70;;;;;;111739;1235;49032;-67
2023/05/20 01:19:43;;;;;;;;;30.25;28.25;24.70;47.70;;;;;;111344;1241;49105;-67
2023/05/20 01:22:11;;;;;;;;;24.67;23.00;24.70;47.70;;;;;;111573;1237;45208;-70
2023/05/20 01:24:43;;;;;;;;;29.00;26.75;24.70;47.80;;;;;;112065;1239;55375;-70
2023/05/20 01:27:12;;;;;;;;;28.50;25.75;24.70;47.70;;;;;;111654;1241;54504;-70
2023/05/20 01:29:40;;;;;;;;;27.50;25.00;24.70;47.60;;;;;;111754;1235;49701;-69
2023/05/20 01:32:17;;;;;;;;;27.00;23.75;24.70;47.60;;;;;;111710;1237;49699;-70
2023/05/20 01:34:44;;;;;;;;;25.00;23.75;24.70;47.70;;;;;;111889;1237;45963;-70
2023/05/20 01:37:12;;;;;;;;;29.00;28.00;24.70;47.70;;;;;;111482;1242;55370;-70
2023/05/20 01:39:41;;;;;;;;;33.25;29.00;24.70;47.70;;;;;;111648;1238;53305;-71
2023/05/20 01:42:09;;;;;;;;;28.25;27.25;24.70;47.60;;;;;;111740;1237;49783;-70
2023/05/20 01:44:36;;;;;;;;;25.00;23.75;24.70;47.70;;;;;;112039;1235;49541;-69
2023/05/20 01:47:03;;;;;;;;;28.00;26.67;24.60;47.60;;;;;;111756;1240;46927;-70
2023/05/20 01:49:30;;;;;;;;;24.50;23.50;24.70;47.70;;;;;;111760;1235;55209;-71
2023/05/20 01:51:57;;;;;;;;;27.00;25.00;24.70;47.90;;;;;;111748;1238;54035;-71
2023/05/20 01:54:24;;;;;;;;;26.25;25.50;24.70;47.70;;;;;;111978;1238;49343;-70
2023/05/20 01:56:51;;;;;;;;;22.67;21.33;24.60;47.60;;;;;;111677;1237;50670;-69
2023/05/20 01:59:18;;;;;;;;;27.00;23.25;24.60;47.70;;;;;;111804;1235;45977;-69
2023/05/20 02:01:45;;;;;;;;;26.00;25.00;24.60;47.70;;;;;;111759;1238;56372;-70
2023/05/20 02:04:12;;;;;;;;;24.00;21.00;24.60;47.60;;;;;;111856;1239;54021;-70
2023/05/20 02:06:39;;;;;;;;;23.00;22.00;24.60;47.70;;;;;;111912;1237;49541;-70
2023/05/20 02:09:06;;;;;;;;;27.25;26.25;24.60;47.70;;;;;;111735;1235;49402;-69
2023/05/20 02:11:33;;;;;;;;;29.00;26.33;24.60;47.70;;;;;;111827;1235;45774;-69
2023/05/20 02:14:00;;;;;;;;;30.25;26.50;24.60;47.70;;;;;;111747;1240;55470;-69
2023/05/20 02:16:27;;;;;;;;;27.33;24.33;24.60;47.90;;;;;;112045;1235;55639;-70
2023/05/20 02:18:54;;;;;;;;;25.50;24.50;24.60;47.80;;;;;;111761;1237;50027;-66
2023/05/20 02:21:21;;;;;;;;;26.75;26.00;24.60;47.90;;;;;;111686;1239;48810;-65
2023/05/20 02:23:48;;;;;;;;;29.75;26.75;24.60;47.70;;;;;;111758;1240;46066;-65
2023/05/20 02:26:16;;;;;;;;;32.50;28.00;24.60;47.80;;;;;;112098;1241;55793;-65
2023/05/20 02:28:45;;;;;;;;;25.25;24.00;24.60;47.90;;;;;;111751;1240;53289;-65
2023/05/20 02:31:12;;;;;;;;;27.00;26.00;24.60;47.80;;;;;;111742;1238;50521;-67
2023/05/20 02:33:39;;;;;;;;;25.25;24.25;24.60;47.80;;;;;;111649;1241;48902;-68
2023/05/20 02:36:06;;;;;;;;;27.25;23.75;24.60;47.90;;;;;;111985;1237;45540;-67
2023/05/20 02:38:33;;;;;;;;;26.00;24.00;24.60;48.00;;;;;;111755;1235;55123;-67
2023/05/20 02:41:00;;;;;;;;;26.00;23.00;24.50;47.60;;;;;;111770;1240;54000;-70
2023/05/20 02:43:27;;;;;;;;;24.25;23.25;24.60;47.80;;;;;;111700;1240;52047;-69
2023/05/20 02:45:55;;;;;;;;;30.00;28.00;24.50;47.70;;;;;;112038;1237;51060;-69
2023/05/20 02:48:22;;;;;;;;;24.67;24.00;24.50;47.70;;;;;;111721;1240;45933;-69
2023/05/20 02:50:49;;;;;;;;;26.50;23.75;24.50;47.80;;;;;;111778;1235;55169;-69
2023/05/20 02:53:16;;;;;;;;;24.00;23.00;24.50;47.90;;;;;;111765;1236;54910;-68
2023/05/20 02:55:46;;;;;;;;;24.50;24.00;24.40;47.80;;;;;;112013;1235;49594;-69
2023/05/20 02:58:13;;;;;;;;;28.25;26.25;24.50;48.50;;;;;;111716;1240;49570;-69
2023/05/20 03:00:40;;;;;;;;;27.75;26.75;24.50;48.00;;;;;;111757;1240;46423;-68
2023/05/20 03:03:08;;;;;;;;;26.33;23.33;24.50;47.80;;;;;;111767;1236;56327;-69
2023/05/20 03:05:36;;;;;;;;;23.75;22.50;24.40;47.90;;;;;;112089;1236;54032;-69
2023/05/20 03:08:13;;;;;;;;;25.50;24.25;24.40;47.90;;;;;;111641;1235;48826;-71
2023/05/20 03:10:40;;;;;;;;;26.00;23.50;24.40;48.00;;;;;;111765;1235;49787;-71
2023/05/20 03:13:10;;;;;;;;;26.33;24.00;24.40;48.10;;;;;;111798;1240;45489;-71
2023/05/20 03:15:37;;;;;;;;;28.75;26.00;24.40;47.90;;;;;;112000;1239;55858;-70
2023/05/20 03:18:07;;;;;;;;;34.00;29.75;24.40;48.20;;;;;;111739;1235;53698;-71
2023/05/20 03:20:37;;;;;;;;;24.75;23.25;24.40;48.00;;;;;;111745;1239;49171;-70
2023/05/20 03:23:04;;;;;;;;;29.00;28.25;24.40;48.20;;;;;;111695;1238;50235;-69
2023/05/20 03:25:31;;;;;;;;;26.75;25.75;24.40;48.00;;;;;;112058;1240;46310;-67
2023/05/20 03:27:58;;;;;;;;;26.00;24.25;24.40;48.00;;;;;;111750;1236;56305;-67
2023/05/20 03:30:26;;;;;;;;;29.75;27.50;24.40;48.00;;;;;;111662;1240;53996;-68
2023/05/20 03:32:56;;;;;;;;;29.50;26.75;24.40;48.10;;;;;;111792;1242;49901;-68
2023/05/20 03:35:24;;;;;;;;;28.00;25.50;24.40;47.90;;;;;;112056;1240;49440;-69
2023/05/20 03:37:52;;;;;;;;;27.50;25.00;24.40;48.10;;;;;;111718;1235;45366;-68
2023/05/20 03:40:22;;;;;;;;;27.00;25.00;24.40;48.00;;;;;;111741;1237;55217;-69
2023/05/20 03:42:50;;;;;;;;;28.33;26.67;24.40;47.80;;;;;;111739;1235;53904;-68
2023/05/20 03:45:18;;;;;;;;;29.75;25.75;24.30;47.80;;;;;;112021;1237;49624;-69
2023/05/20 03:47:44;;;;;;;;;29.25;28.00;24.30;47.70;;;;;;111714;1235;48937;-68
2023/05/20 03:50:11;;;;;;;;;27.00;24.50;24.30;47.50;;;;;;111721;1238;45349;-69
2023/05/20 03:52:39;;;;;;;;;29.00;27.75;24.30;48.00;;;;;;111749;1235;56393;-70
2023/05/20 03:55:06;;;;;;;;;27.50;26.25;24.30;48.00;;;;;;112049;1235;54434;-69
2023/05/20 03:57:35;;;;;;;;;31.25;28.50;24.30;48.60;;;;;;111622;1235;50239;-69
2023/05/20 04:00:10;;;;;;;;;26.00;24.75;24.30;48.00;;;;;;111747;1240;49785;-71
2023/05/20 04:02:37;;;;;;;;;26.75;26.00;24.30;48.00;;;;;;111797;1240;46001;-69
2023/05/20 04:05:07;;;;;;;;;31.00;28.00;24.30;48.00;;;;;;112048;1240;55633;-69
2023/05/20 04:07:34;;;;;;;;;31.00;27.00;24.30;48.20;;;;;;111801;1240;54609;-70
2023/05/20 04:10:03;;;;;;;;;28.50;26.50;24.40;48.10;;;;;;111739;1240;50812;-70
2023/05/20 04:12:31;;;;;;;;;31.00;27.00;24.30;48.00;;;;;;111640;1235;49650;-70
2023/05/20 04:15:00;;;;;;;;;26.00;25.25;24.30;48.00;;;;;;112035;1237;45643;-70
2023/05/20 04:17:28;;;;;;;;;31.50;27.75;24.30;48.10;;;;;;111708;1239;55024;-71
2023/05/20 04:19:58;;;;;;;;;28.75;27.50;24.30;47.90;;;;;;111741;1239;53337;-71
2023/05/20 04:22:25;;;;;;;;;26.75;25.75;24.30;47.80;;;;;;111653;1235;49611;-71
2023/05/20 04:24:53;;;;;;;;;26.25;25.25;24.30;47.80;;;;;;112052;1235;49295;-71
2023/05/20 04:27:20;;;;;;;;;26.75;24.00;24.30;47.80;;;;;;111610;1241;45995;-71
2023/05/20 04:29:47;;;;;;;;;27.75;25.00;24.30;47.70;;;;;;111571;1239;56079;-71
2023/05/20 04:32:18;;;;;;;;;27.50;23.50;24.30;47.60;;;;;;111630;1235;54340;-72
2023/05/20 04:34:45;;;;;;;;;27.50;25.75;24.30;47.60;;;;;;112008;1240;49910;-72
2023/05/20 04:37:12;;;;;;;;;29.33;28.33;24.30;47.60;;;;;;111702;1237;49731;-72
2023/05/20 04:39:39;;;;;;;;;26.00;25.00;24.30;47.50;;;;;;111793;1240;45789;-71
2023/05/20 04:42:06;;;;;;;;;25.00;24.00;24.30;47.50;;;;;;111777;1235;56688;-71
2023/05/20 04:44:33;;;;;;;;;27.75;25.50;24.30;47.40;;;;;;112009;1241;54284;-71
2023/05/20 04:47:00;;;;;;;;;26.75;25.00;24.30;47.40;;;;;;111626;1235;49342;-72
2023/05/20 04:49:30;;;;;;;;;29.33;26.67;24.30;47.60;;;;;;111617;1238;49562;-70
2023/05/20 04:51:57;;;;;;;;;31.00;26.50;24.30;47.30;;;;;;111608;1242;46087;-71
2023/05/20 04:54:24;;;;;;;;;25.33;24.33;24.20;47.20;;;;;;111703;1235;56310;-73
2023/05/20 04:56:51;;;;;;;;;27.25;24.00;24.20;47.30;;;;;;111707;1235;54139;-69
2023/05/20 04:59:18;;;;;;;;;24.00;23.00;24.20;47.20;;;;;;111637;1237;49805;-69
2023/05/20 05:01:45;;;;;;;;;27.00;23.25;24.20;47.20;;;;;;111610;1242;49827;-70
2023/05/20 05:04:12;;;;;;;;;25.25;23.75;24.20;46.80;;;;;;111559;1239;46134;-70
2023/05/20 05:06:38;;;;;;;;;28.33;24.67;24.20;47.20;;;;;;111538;1240;55138;-70
2023/05/20 05:09:06;;;;;;;;;27.50;23.50;24.20;47.20;;;;;;111760;1235;53808;-69
2023/05/20 05:11:33;;;;;;;;;27.00;25.67;24.20;47.20;;;;;;111726;1240;49505;-71
2023/05/20 05:14:01;;;;;;;;;29.00;26.25;24.20;47.20;;;;;;111733;1241;49847;-71
2023/05/20 05:16:28;;;;;;;;;26.00;23.00;24.20;47.10;;;;;;111846;1241;45901;-67
2023/05/20 05:18:54;;;;;;;;;25.00;23.75;24.20;47.20;;;;;;111633;1237;55930;-71
2023/05/20 05:21:21;;;;;;;;;24.75;22.75;24.20;47.10;;;;;;111775;1235;53419;-71
2023/05/20 05:23:48;;;;;;;;;27.75;24.00;24.20;47.30;;;;;;111505;1237;49459;-72
2023/05/20 05:26:15;;;;;;;;;26.33;24.67;24.20;47.10;;;;;;111669;1235;50099;-71
2023/05/20 05:28:42;;;;;;;;;27.67;23.33;24.20;47.10;;;;;;111771;1235;45994;-71
2023/05/20 05:31:09;;;;;;;;;25.00;22.50;24.20;47.10;;;;;;111788;1239;56278;-70
2023/05/20 05:33:36;;;;;;;;;24.00;23.00;24.20;47.10;;;;;;111632;1241;53752;-73
2023/05/20 05:36:04;;;;;;;;;23.50;22.25;24.20;47.10;;;;;;111444;1235;49736;-71
2023/05/20 05:38:31;;;;;;;;;22.67;20.00;24.20;47.10;;;;;;111561;1239;49781;-60
2023/05/20 05:40:58;;;;;;;;;29.25;27.50;24.20;47.10;;;;;;111630;1235;45214;-60
2023/05/20 05:43:25;;;;;;;;;23.75;22.50;24.20;47.10;;;;;;111649;1238;56396;-59
2023/05/20 05:45:52;;;;;;;;;22.67;21.67;24.20;47.10;;;;;;111527;1236;53693;-59
2023/05/20 05:48:21;;;;;;;;;26.75;25.75;24.20;47.40;;;;;;111660;1238;49432;-60
2023/05/20 05:50:48;;;;;;;;;27.00;24.25;24.20;47.10;;;;;;111616;1240;50212;-63
2023/05/20 05:53:15;;;;;;;;;25.75;22.00;24.20;47.10;;;;;;111603;1235;46420;-62
2023/05/20 05:55:42;;;;;;;;;25.25;24.00;24.20;47.10;;;;;;111448;1240;55618;-62
2023/05/20 05:58:09;;;;;;;;;22.50;20.75;24.20;47.20;;;;;;111645;1240;53633;-61
2023/05/20 06:00:36;;;;;;;;;27.00;22.50;24.20;47.10;;;;;;111617;1235;49657;-61
2023/05/20 06:03:03;;;;;;;;;28.00;23.67;24.20;47.30;;;;;;111654;1235;50449;-61
2023/05/20 06:05:30;;;;;;;;;25.00;22.25;24.20;47.10;;;;;;111482;1236;46253;-62
2023/05/20 06:07:57;;;;;;;;;25.25;22.25;24.10;47.10;;;;;;111556;1236;55497;-63
2023/05/20 06:10:24;;;;;;;;;24.67;21.67;24.20;47.20;;;;;;111607;1235;53803;-64
2023/05/20 06:12:51;;;;;;;;;27.25;25.00;24.10;47.10;;;;;;111619;1237;49474;-62
2023/05/20 06:15:18;;;;;;;;;23.25;21.75;24.10;47.30;;;;;;111445;1240;49591;-61
2023/05/20 06:17:45;;;;;;;;;25.75;24.00;24.10;47.10;;;;;;111662;1240;45166;-61
2023/05/20 06:20:12;;;;;;;;;22.67;21.67;24.10;47.10;;;;;;111654;1240;55628;-69
2023/05/20 06:22:38;;;;;;;;;24.00;23.00;24.20;47.20;;;;;;111628;1235;54486;-61
2023/05/20 06:25:06;;;;;;;;;25.50;24.50;24.10;47.10;;;;;;111382;1242;49074;-63
2023/05/20 06:27:33;;;;;;;;;23.50;22.75;24.10;47.20;;;;;;111626;1236;49547;-66
2023/05/20 06:30:00;;;;;;;;;24.33;23.33;24.20;47.60;;;;;;111602;1241;46799;-70
2023/05/20 06:32:27;;;;;;;;;23.25;22.25;24.20;47.40;;;;;;111595;1240;55283;-69
2023/05/20 06:34:54;;;;;;;;;28.00;23.75;24.20;47.40;;;;;;111624;1235;53915;-69
2023/05/20 06:37:23;;;;;;;;;23.75;20.75;24.20;47.50;;;;;;111643;1239;49852;-68
2023/05/20 06:39:52;;;;;;;;;26.75;24.00;24.20;47.40;;;;;;111518;1238;49030;-69
2023/05/20 06:42:20;;;;;;;;;24.67;22.33;24.20;47.40;;;;;;111685;1235;46012;-70
2023/05/20 06:44:47;;;;;;;;;22.75;19.50;24.20;47.40;;;;;;111602;1238;56474;-69
2023/05/20 06:47:16;;;;;;;;;23.00;22.00;24.20;47.40;;;;;;111663;1235;54321;-69
2023/05/20 06:49:43;;;;;;;;;25.33;22.33;24.20;47.50;;;;;;111791;1238;49542;-69
2023/05/20 06:52:11;;;;;;;;;23.75;22.75;24.20;47.50;;;;;;111768;1235;49800;-69
2023/05/20 06:54:40;;;;;;;;;22.67;21.67;24.30;47.40;;;;;;111565;1237;45832;-69
2023/05/20 06:57:07;;;;;;;;;22.00;21.00;24.30;47.40;;;;;;111617;1241;56325;-61
2023/05/20 06:59:35;;;;;;;;;24.33;22.00;24.30;47.30;;;;;;111619;1240;54533;-62
2023/05/20 07:02:03;;;;;;;;;24.50;22.00;24.30;47.40;;;;;;111604;1238;50130;-65
2023/05/20 07:04:30;;;;;;;;;27.25;23.00;24.30;47.50;;;;;;111417;1235;49428;-67
2023/05/20 07:06:57;;;;;;;;;25.00;23.00;24.30;47.50;;;;;;112524;1237;45255;-67
2023/05/20 07:09:24;;;;;;;;;25.00;24.00;24.40;47.70;;;;;;111791;1239;56171;-67
2023/05/20 07:11:51;;;;;;;;;25.00;22.00;24.50;47.70;;;;;;111737;1237;54058;-67
2023/05/20 07:14:18;;;;;;;;;28.00;24.00;24.50;47.60;;;;;;111913;1235;48856;-67
2023/05/20 07:16:45;;;;;;;;;24.00;22.67;24.50;47.60;;;;;;111806;1238;48837;-66
2023/05/20 07:19:12;;;;;;;;;23.50;22.50;24.60;47.80;;;;;;111709;1235;46405;-67
2023/05/20 07:21:39;;;;;;;;;25.00;24.00;24.50;47.70;;;;;;111752;1238;56502;-67
2023/05/20 07:24:06;;;;;;;;;30.33;26.00;24.60;47.80;;;;;;111770;1235;53254;-67
2023/05/20 07:26:35;;;;;;;;;23.25;22.25;24.60;47.80;;;;;;111819;1241;50151;-66
2023/05/20 07:29:03;;;;;;;;;24.50;23.25;24.50;47.80;;;;;;111549;1238;50378;-67
2023/05/20 07:31:30;;;;;;;;;24.25;22.50;24.60;47.80;;;;;;111682;1237;45815;-68
2023/05/20 07:33:57;;;;;;;;;26.00;21.75;24.60;47.80;;;;;;111786;1235;56408;-67
2023/05/20 07:36:28;;;;;;;;;26.75;22.75;24.60;47.90;;;;;;112025;1235;54426;-68
2023/05/20 07:38:55;;;;;;;;;23.75;21.75;24.60;47.90;;;;;;111743;1241;49175;-67
2023/05/20 07:41:22;;;;;;;;;23.33;22.00;24.60;48.10;;;;;;111810;1235;49912;-67
2023/05/20 07:43:49;;;;;;;;;23.25;21.50;24.60;48.10;;;;;;111790;1240;45286;-67
2023/05/20 07:46:16;;;;;;;;;28.00;25.50;24.70;48.10;;;;;;112044;1235;55939;-67
2023/05/20 07:48:43;;;;;;;;;28.67;25.00;24.70;48.10;;;;;;111724;1240;53523;-67
2023/05/20 07:51:10;;;;;;;;;23.50;21.25;24.70;48.10;;;;;;111757;1240;49475;-68
2023/05/20 07:53:38;;;;;;;;;28.00;22.67;24.70;48.10;;;;;;111734;1239;49442;-67
2023/05/20 07:56:05;;;;;;;;;25.67;24.33;24.70;48.40;;;;;;112061;1235;46404;-67
2023/05/20 07:58:32;;;;;;;;;24.50;21.50;24.80;48.40;;;;;;111734;1235;55571;-66
2023/05/20 08:00:59;;;;;;;;;25.67;23.00;24.80;48.30;;;;;;111649;1235;54301;-67
2023/05/20 08:03:26;;;;;;;;;28.00;22.50;24.80;48.30;;;;;;111697;1235;49978;-67
2023/05/20 08:05:53;;;;;;;;;26.25;22.75;24.90;48.50;;;;;;112089;1235;49420;-68
2023/05/20 08:08:20;;;;;;;;;25.00;23.00;24.90;48.60;;;;;;111759;1240;46117;-68
2023/05/20 08:10:47;;;;;;;;;21.75;20.75;24.90;48.70;;;;;;111759;1240;56535;-67
2023/05/20 08:13:14;;;;;;;;;24.50;22.00;25.00;48.60;;;;;;111756;1236;54445;-67
2023/05/20 08:15:41;;;;;;;;;26.00;24.00;24.90;48.60;;;;;;112010;1241;49447;-66
2023/05/20 08:18:08;;;;;;;;;25.75;21.75;25.00;48.80;;;;;;111539;1241;48860;-68
2023/05/20 08:20:35;;;;;;;;;24.75;22.25;25.00;48.70;;;;;;111785;1235;45740;-68
2023/05/20 08:23:02;;;;;;;;;25.75;22.25;25.10;48.80;;;;;;111735;1237;56270;-67
2023/05/20 08:25:29;;;;;;;;;24.25;21.75;25.10;48.90;;;;;;111610;1242;53876;-67
2023/05/20 08:27:56;;;;;;;;;23.25;21.75;25.10;48.90;;;;;;111701;1245;49699;-67
2023/05/20 08:30:23;;;;;;;;;32.00;26.00;25.20;48.90;;;;;;111737;1240;50082;-67
2023/05/20 08:32:50;;;;;;;;;24.67;22.00;25.20;49.10;;;;;;111676;1235;45186;-67
2023/05/20 08:35:17;;;;;;;;;26.75;22.50;25.20;49.00;;;;;;111712;1237;56632;-66
2023/05/20 08:37:44;;;;;;;;;20.75;19.75;25.20;49.00;;;;;;111700;1240;53988;-67
2023/05/20 08:40:12;;;;;;;;;22.50;21.00;25.20;49.00;;;;;;111776;1235;49453;-67
2023/05/20 08:42:42;;;;;;;;;23.50;21.25;25.30;49.30;;;;;;111711;1236;49716;-67
2023/05/20 08:45:11;;;;;;;;;24.75;23.75;25.20;49.10;;;;;;112043;1238;46098;-68
2023/05/20 08:47:44;;;;;;;;;22.50;21.00;25.30;49.30;;;;;;111712;1237;56663;-67
2023/05/20 08:50:13;;;;;;;;;25.67;22.67;25.30;49.10;;;;;;111791;1235;53527;-68
2023/05/20 08:52:46;;;;;;;;;27.50;21.50;25.40;49.10;;;;;;111658;1238;49495;-66
2023/05/20 08:55:16;;;;;;;;;22.50;20.75;25.50;49.60;;;;;;111469;1241;49730;-67
2023/05/20 08:57:44;;;;;;;;;28.00;21.67;25.50;49.10;;;;;;111432;1238;45444;-66
2023/05/20 09:00:14;;;;;;;;;25.75;21.25;25.50;49.20;;;;;;111141;1240;694280;-67
2023/05/20 09:02:42;;;;;;;;;29.00;24.75;25.60;49.10;;;;;;111599;1238;54162;-67
2023/05/20 09:05:09;;;;;;;;;24.50;20.00;25.60;49.30;;;;;;112042;1237;49608;-67
2023/05/20 09:07:36;;;;;;;;;23.00;20.00;25.50;49.10;;;;;;111707;1235;49074;-67
2023/05/20 09:10:04;;;;;;;;;25.75;20.00;25.60;49.20;;;;;;111736;1238;45256;-66
2023/05/20 09:12:31;;;;;;;;;24.25;22.75;25.60;49.00;;;;;;111684;1240;55826;-66
2023/05/20 09:14:58;;;;;;;;;27.33;24.00;25.70;49.00;;;;;;111690;1237;53796;-66
2023/05/20 09:17:25;;;;;;;;;24.00;22.00;25.70;49.10;;;;;;111675;1237;49868;-67
2023/05/20 09:19:53;;;;;;;;;22.25;20.75;25.80;49.30;;;;;;111674;1241;49755;-67
2023/05/20 09:22:23;;;;;;;;;27.75;23.00;25.80;49.00;;;;;;111745;1237;46011;-67
2023/05/20 09:24:51;;;;;;;;;26.75;22.00;25.80;49.60;;;;;;112050;1240;55626;-67
2023/05/20 09:27:19;;;;;;;;;24.75;20.00;25.80;49.10;;;;;;111733;1235;54538;-67
2023/05/20 09:29:47;;;;;;;;;21.00;19.00;25.90;49.10;;;;;;111770;1235;50133;-67
2023/05/20 09:32:16;;;;;;;;;32.50;24.50;25.90;49.00;;;;;;111795;1240;49091;-66
2023/05/20 09:34:44;;;;;;;;;21.50;20.50;25.90;48.90;;;;;;111663;1237;45311;-66
2023/05/20 09:37:13;;;;;;;;;27.00;23.00;25.90;48.90;;;;;;111651;1240;55676;-66
2023/05/20 09:39:59;;;;;;;;;23.50;21.25;26.00;49.10;;;;;;111661;1237;54439;-67
2023/05/20 09:42:33;;;;;;;;;23.00;22.25;26.00;48.90;;;;;;111669;1240;49141;-67
2023/05/20 09:45:03;;;;;;;;;23.00;20.75;26.00;48.90;;;;;;112056;1235;50673;-67
2023/05/20 09:47:30;;;;;;;;;22.00;21.00;26.00;48.90;;;;;;111760;1235;46600;-68
2023/05/20 09:49:58;;;;;;;;;27.00;25.25;26.10;48.90;;;;;;111741;1239;55850;-67
2023/05/20 09:52:26;;;;;;;;;22.00;19.33;26.10;48.80;;;;;;111652;1235;54856;-67
2023/05/20 09:54:55;;;;;;;;;24.00;19.50;26.20;48.90;;;;;;111640;1240;50395;-67
2023/05/20 09:57:22;;;;;;;;;20.25;18.00;26.20;48.80;;;;;;111638;1240;50452;-67
2023/05/20 09:59:50;;;;;;;;;24.75;21.00;26.20;48.80;;;;;;111632;1239;45958;-67
2023/05/20 10:02:17;;;;;;;;;23.00;20.25;26.30;48.80;;;;;;111669;1243;55706;-67
2023/05/20 10:04:48;;;;;;;;;23.67;21.00;26.30;48.80;;;;;;112046;1238;54089;-67
2023/05/20 10:07:38;;;;;;;;;22.50;20.25;26.30;48.80;;;;;;111615;1241;49188;-67
2023/05/20 10:10:31;;;;;;;;;21.33;20.33;26.40;48.80;;;;;;111629;1241;49523;-67
2023/05/20 10:13:21;;;;;;;;;28.75;22.75;26.40;48.70;;;;;;111774;1235;45599;-67
2023/05/20 10:15:58;;;;;;;;;22.25;19.25;26.40;48.60;;;;;;111976;1240;55421;-67
2023/05/20 10:18:32;;;;;;;;;22.75;19.00;26.50;48.80;;;;;;111645;1238;54099;-67
2023/05/20 10:21:00;;;;;;;;;23.75;21.00;26.50;48.50;;;;;;111740;1240;49564;-66
2023/05/20 10:23:28;;;;;;;;;25.00;22.50;26.60;48.50;;;;;;111673;1238;49766;-66
2023/05/20 10:25:57;;;;;;;;;23.25;21.00;26.60;48.50;;;;;;111939;1240;45752;-66
2023/05/20 10:28:35;;;;;;;;;23.50;20.50;26.60;48.50;;;;;;111744;1240;55992;-67
2023/05/20 10:31:13;;;;;;;;;22.00;19.33;26.60;48.40;;;;;;111731;1240;54724;-67
2023/05/20 10:33:42;;;;;;;;;22.25;21.25;26.70;48.50;;;;;;111654;1238;50437;-66
2023/05/20 10:36:10;;;;;;;;;27.25;21.50;26.70;48.40;;;;;;111667;1236;49170;-68
2023/05/20 10:38:36;;;;;;;;;23.50;21.25;26.70;48.60;;;;;;111616;1238;46042;-67
2023/05/20 10:41:12;;;;;;;;;24.50;21.50;26.80;48.40;;;;;;111757;1240;55184;-67
2023/05/20 10:43:39;;;;;;;;;22.25;21.00;26.80;48.60;;;;;;111733;1240;54660;-67
2023/05/20 10:46:17;;;;;;;;;23.00;20.00;26.80;48.40;;;;;;112035;1239;49128;-67
2023/05/20 10:48:43;;;;;;;;;23.75;21.00;26.80;48.30;;;;;;111803;1236;49801;-68
2023/05/20 10:51:13;;;;;;;;;21.25;19.50;26.90;48.40;;;;;;111732;1240;45575;-66
2023/05/20 10:53:45;;;;;;;;;25.50;21.00;26.90;48.40;;;;;;111688;1235;55416;-66
2023/05/20 10:56:22;;;;;;;;;22.25;19.75;26.90;48.20;;;;;;111590;1241;54177;-67
2023/05/20 10:58:51;;;;;;;;;21.00;20.00;26.90;48.20;;;;;;111727;1235;48934;-68
2023/05/20 11:01:22;;;;;;;;;19.00;18.00;27.00;48.20;;;;;;111759;1235;48888;-67
2023/05/20 11:03:50;;;;;;;;;21.75;17.00;27.00;48.40;;;;;;111748;1235;45818;-67
2023/05/20 11:06:18;;;;;;;;;20.67;18.00;27.00;48.10;;;;;;111653;1235;56918;-66
2023/05/20 11:08:45;;;;;;;;;25.75;20.25;27.00;48.10;;;;;;111693;1240;54996;-67
2023/05/20 11:11:13;;;;;;;;;22.50;20.50;27.00;48.00;;;;;;111747;1237;49725;-67
2023/05/20 11:13:40;;;;;;;;;22.00;18.00;27.00;48.00;;;;;;111569;1241;50365;-68
2023/05/20 11:16:08;;;;;;;;;22.67;21.33;27.00;48.00;;;;;;112051;1235;46082;-67
2023/05/20 11:18:35;;;;;;;;;19.67;18.33;27.10;48.10;;;;;;111640;1237;55279;-67
2023/05/20 11:21:02;;;;;;;;;22.67;19.67;27.10;48.00;;;;;;111645;1240;53151;-67
2023/05/20 11:23:29;;;;;;;;;20.00;19.00;27.10;48.00;;;;;;111694;1240;50190;-67
2023/05/20 11:25:57;;;;;;;;;22.75;20.25;27.10;47.90;;;;;;112069;1236;49617;-66
2023/05/20 11:28:24;;;;;;;;;25.00;21.00;27.10;48.10;;;;;;111553;1242;45189;-67
2023/05/20 11:30:51;;;;;;;;;24.00;19.25;27.20;47.90;;;;;;111729;1236;56589;-67
2023/05/20 11:33:18;;;;;;;;;23.00;22.00;27.20;47.80;;;;;;111539;1243;54174;-67
2023/05/20 11:35:46;;;;;;;;;20.00;19.33;27.20;47.80;;;;;;111645;1235;48853;-68
2023/05/20 11:38:13;;;;;;;;;22.67;20.33;27.20;48.00;;;;;;111719;1235;49724;-70
2023/05/20 11:40:44;;;;;;;;;20.00;19.00;27.20;47.80;;;;;;111772;1235;45994;-68
2023/05/20 11:43:13;;;;;;;;;24.50;21.75;27.20;47.90;;;;;;111743;1240;55218;-67
2023/05/20 11:45:41;;;;;;;;;21.00;18.50;27.20;47.80;;;;;;111664;1235;54595;-67
2023/05/20 11:48:09;;;;;;;;;22.50;21.00;27.20;47.70;;;;;;111735;1240;49223;-67
2023/05/20 11:50:38;;;;;;;;;22.50;21.50;27.30;47.70;;;;;;111744;1240;49228;-68
2023/05/20 11:53:22;;;;;;;;;19.00;18.00;27.30;47.90;;;;;;111757;1239;45664;-67
2023/05/20 11:55:54;;;;;;;;;18.00;16.75;27.30;47.90;;;;;;112040;1240;56485;-67
2023/05/20 11:58:26;;;;;;;;;19.50;17.00;27.30;47.70;;;;;;111757;1239;53626;-67
2023/05/20 12:00:53;;;;;;;;;19.75;18.00;27.30;47.50;;;;;;111730;1235;49566;-69
2023/05/20 12:03:21;;;;;;;;;21.75;20.50;27.30;47.50;;;;;;111760;1235;49365;-68
2023/05/20 12:05:49;;;;;;;;;20.00;19.00;27.40;47.50;;;;;;112055;1235;46077;-67
2023/05/20 12:08:16;;;;;;;;;21.50;19.00;27.40;47.50;;;;;;111818;1236;55309;-67
2023/05/20 12:10:43;;;;;;;;;21.50;16.25;27.40;47.00;;;;;;111580;1238;53882;-67
2023/05/20 12:13:12;;;;;;;;;18.00;17.00;27.40;47.40;;;;;;111738;1235;49169;-68
2023/05/20 12:15:39;;;;;;;;;19.50;18.50;27.40;47.60;;;;;;112042;1240;49165;-68
2023/05/20 12:18:06;;;;;;;;;21.75;19.50;27.40;47.50;;;;;;111741;1241;45790;-68
2023/05/20 12:20:33;;;;;;;;;21.00;19.75;27.40;47.40;;;;;;111745;1235;55984;-68
2023/05/20 12:23:00;;;;;;;;;26.00;20.50;27.40;47.40;;;;;;111739;1235;54186;-67